Time;durP1;ratioP1;P1;durP2;ratioP2;P2;SDS_P1;SDS_P2;PMS_P1;PMS_P2;Temp;Humidity;BMP_temperature;BMP_pressure;BME280_temperature;BME280_humidity;BME280_pressure;Samples;Min_cycle;Max_cycle;Signal;HPM_P1;HPM_P2
2021/08/28 00:01:04;;;;;;;1.67;1.27;;;;;;;17.55;100.00;100945.25;4986746;28;20133;-66
2021/08/28 00:03:29;;;;;;;1.90;1.20;;;;;;;17.57;100.00;100937.44;4989739;28;20204;-67
2021/08/28 00:05:55;;;;;;;6.15;1.67;;;;;;;17.58;100.00;100944.44;4991620;28;20542;-66
2021/08/28 00:08:20;;;;;;;2.50;1.23;;;;;;;17.55;100.00;100942.50;4991333;28;20022;-66
2021/08/28 00:10:46;;;;;;;2.25;1.20;;;;;;;17.55;100.00;100931.63;4990895;28;20589;-72
2021/08/28 00:13:13;;;;;;;2.22;1.35;;;;;;;17.52;100.00;100934.34;4984183;28;20048;-70
2021/08/28 00:15:39;;;;;;;1.90;1.40;;;;;;;17.54;100.00;100938.22;5004309;28;20515;-67
2021/08/28 00:18:05;;;;;;;1.42;1.00;;;;;;;17.51;100.00;100936.31;4991725;28;20022;-67
2021/08/28 00:20:32;;;;;;;2.53;1.25;;;;;;;17.50;100.00;100939.44;4992300;28;20026;-68
2021/08/28 00:23:02;;;;;;;1.85;1.40;;;;;;;17.50;100.00;100945.63;4984791;28;20096;-68
2021/08/28 00:25:27;;;;;;;2.15;1.30;;;;;;;17.50;100.00;100945.63;4991631;28;20042;-66
2021/08/28 00:27:53;;;;;;;3.70;1.35;;;;;;;17.49;100.00;100938.63;4984880;28;20057;-69
2021/08/28 00:30:18;;;;;;;2.60;1.52;;;;;;;17.49;100.00;100938.63;4983542;28;20037;-66
2021/08/28 00:32:43;;;;;;;3.15;1.60;;;;;;;17.40;100.00;100938.22;5006348;28;20042;-67
2021/08/28 00:35:09;;;;;;;1.90;1.40;;;;;;;17.43;100.00;100942.13;5007198;28;20060;-67
2021/08/28 00:37:35;;;;;;;2.83;1.40;;;;;;;17.44;100.00;100938.25;4998440;28;20027;-66
2021/08/28 00:40:00;;;;;;;3.13;1.23;;;;;;;17.46;100.00;100935.91;4990707;28;20113;-66
2021/08/28 00:42:26;;;;;;;3.42;1.80;;;;;;;17.42;100.00;100941.34;4989111;28;20134;-67
2021/08/28 00:44:52;;;;;;;2.08;1.40;;;;;;;17.39;100.00;100944.88;5007199;28;20175;-66
2021/08/28 00:47:20;;;;;;;2.55;1.70;;;;;;;17.42;100.00;100946.03;5000665;28;20037;-66
2021/08/28 00:49:47;;;;;;;2.70;1.70;;;;;;;17.45;100.00;100939.78;4990476;28;20113;-65
2021/08/28 00:52:14;;;;;;;3.15;1.88;;;;;;;17.46;100.00;100944.84;4986356;28;20034;-65
2021/08/28 00:54:40;;;;;;;2.10;1.38;;;;;;;17.42;100.00;100952.22;4987611;28;20030;-67
2021/08/28 00:57:07;;;;;;;2.05;1.52;;;;;;;17.39;100.00;100941.34;4991905;28;20026;-66
2021/08/28 00:59:33;;;;;;;2.50;1.55;;;;;;;17.37;100.00;100947.19;4991609;28;20085;-66
2021/08/28 01:01:59;;;;;;;4.20;1.73;;;;;;;17.37;100.00;100952.66;4989586;28;20026;-66
2021/08/28 01:04:29;;;;;;;3.45;2.13;;;;;;;17.28;100.00;100943.34;5002047;28;20050;-68
2021/08/28 01:07:26;;;;;;;2.60;1.58;;;;;;;17.30;100.00;100954.63;4990217;28;20042;-68
2021/08/28 01:10:15;;;;;;;2.80;1.75;;;;;;;17.13;100.00;100948.81;4986946;28;20034;-68
2021/08/28 01:13:17;;;;;;;2.88;1.80;;;;;;;17.14;100.00;100953.09;4954135;28;20097;-68
2021/08/28 01:15:48;;;;;;;2.88;1.65;;;;;;;17.18;100.00;100953.09;4985025;28;20081;-69
2021/08/28 01:18:17;;;;;;;4.63;1.73;;;;;;;17.23;100.00;100952.66;4988576;28;20049;-69
2021/08/28 01:21:03;;;;;;;2.28;1.48;;;;;;;17.21;100.00;100955.00;4988011;28;20035;-69
2021/08/28 01:23:50;;;;;;;2.92;1.52;;;;;;;17.27;100.00;100952.66;4986399;28;20435;-68
2021/08/28 01:26:53;;;;;;;4.20;1.90;;;;;;;17.29;100.00;100951.09;4988613;28;20038;-69
2021/08/28 01:29:27;;;;;;;2.63;1.67;;;;;;;17.33;100.00;100945.66;4987067;28;20041;-69
2021/08/28 01:31:55;;;;;;;2.92;1.85;;;;;;;17.29;100.00;100953.81;4994508;28;20034;-69
2021/08/28 01:34:22;;;;;;;2.78;1.75;;;;;;;17.24;100.00;100953.44;4968759;28;20033;-69
2021/08/28 01:36:50;;;;;;;3.65;1.95;;;;;;;17.25;100.00;100953.06;4988737;28;20026;-69
2021/08/28 01:39:40;;;;;;;2.85;1.90;;;;;;;17.25;100.00;100955.78;4984576;28;20121;-69
2021/08/28 01:42:08;;;;;;;3.67;1.70;;;;;;;17.26;100.00;100960.06;4985507;28;20031;-69
2021/08/28 01:44:34;;;;;;;2.78;1.80;;;;;;;17.26;100.00;100962.00;4988267;28;20034;-69
2021/08/28 01:47:00;;;;;;;3.08;1.50;;;;;;;17.29;100.00;100956.56;4984588;28;20511;-69
2021/08/28 01:49:28;;;;;;;2.95;1.80;;;;;;;17.29;100.00;100964.72;4984846;28;20128;-69
2021/08/28 01:51:55;;;;;;;3.10;1.80;;;;;;;17.31;100.00;100962.38;4984776;28;20034;-69
2021/08/28 01:54:26;;;;;;;;;;;;;;;17.20;100.00;100967.09;5000351;28;20570;-69
2021/08/28 01:56:52;;;;;;;1.95;1.40;;;;;;;17.27;100.00;100967.06;5005366;28;19921;-69
2021/08/28 01:59:19;;;;;;;1.98;1.58;;;;;;;17.22;100.00;100970.19;4989433;28;20030;-69
2021/08/28 02:02:05;;;;;;;1.70;1.50;;;;;;;17.25;100.00;100974.84;4975722;28;20038;-69
2021/08/28 02:04:42;;;;;;;1.55;1.25;;;;;;;17.23;100.00;100971.72;4974122;28;20030;-69
2021/08/28 02:07:11;;;;;;;2.55;1.38;;;;;;;17.28;100.00;100968.63;4989489;28;20614;-68
2021/08/28 02:09:40;;;;;;;2.08;1.73;;;;;;;17.30;100.00;100974.47;4998274;28;20502;-68
2021/08/28 02:12:28;;;;;;;3.47;1.50;;;;;;;17.26;100.00;100981.06;4986690;28;20372;-69
2021/08/28 02:14:57;;;;;;;1.52;1.23;;;;;;;17.30;100.00;100977.19;4986724;28;20033;-68
2021/08/28 02:17:26;;;;;;;2.00;1.38;;;;;;;17.30;100.00;100976.41;5005342;28;20034;-68
2021/08/28 02:19:54;;;;;;;3.22;1.70;;;;;;;17.30;100.00;100966.28;4983390;28;20061;-68
2021/08/28 02:22:49;;;;;;;6.13;1.60;;;;;;;17.27;100.00;100961.59;4974906;28;20054;-69
2021/08/28 02:25:48;;;;;;;7.45;2.05;;;;;;;17.23;100.00;100963.56;5003684;23;20061;-68
2021/08/28 02:28:16;;;;;;;;;;;;;;;17.12;100.00;100973.69;4966788;28;20063;-68
2021/08/28 02:30:45;;;;;;;6.30;2.08;;;;;;;17.19;100.00;100976.41;4970009;28;19968;-68
2021/08/28 02:33:15;;;;;;;4.30;2.13;;;;;;;17.25;100.00;100969.38;4972783;28;20038;-69
2021/08/28 02:35:50;;;;;;;3.83;1.92;;;;;;;17.26;100.00;100964.72;4967743;28;20125;-68
2021/08/28 02:38:18;;;;;;;6.00;2.17;;;;;;;17.25;100.00;100971.34;4970276;28;20038;-66
2021/08/28 02:40:49;;;;;;;7.45;2.20;;;;;;;17.26;100.00;100973.69;4969700;28;20154;-66
2021/08/28 02:43:16;;;;;;;4.03;1.80;;;;;;;17.24;100.00;100973.28;4968628;28;20099;-66
2021/08/28 02:45:47;;;;;;;4.03;2.35;;;;;;;17.24;100.00;100972.50;4970869;28;20472;-66
2021/08/28 02:48:17;;;;;;;4.30;1.75;;;;;;;17.26;100.00;100972.91;4969664;28;20042;-66
2021/08/28 02:50:45;;;;;;;5.03;2.17;;;;;;;17.25;100.00;100965.91;4953195;28;20373;-66
2021/08/28 02:53:16;;;;;;;4.00;1.92;;;;;;;17.25;100.00;100958.50;4947223;28;20035;-66
2021/08/28 02:55:45;;;;;;;;;;;;;;;17.12;100.00;100970.97;4970484;28;20109;-66
2021/08/28 02:58:11;;;;;;;3.60;1.88;;;;;;;17.20;100.00;100961.63;4954217;28;19953;-66
2021/08/28 03:00:40;;;;;;;4.47;2.03;;;;;;;17.22;100.00;100953.84;4968800;28;20023;-66
2021/08/28 03:03:13;;;;;;;4.82;1.95;;;;;;;17.24;100.00;100950.72;4952572;28;20073;-66
2021/08/28 03:05:40;;;;;;;5.35;2.33;;;;;;;17.23;100.00;100952.66;4954073;28;20035;-66
2021/08/28 03:08:07;;;;;;;4.35;2.38;;;;;;;17.22;100.00;100953.84;4953635;28;20532;-67
2021/08/28 03:10:35;;;;;;;4.47;1.98;;;;;;;17.22;100.00;100958.50;4966689;28;20125;-65
2021/08/28 03:13:00;;;;;;;3.47;2.13;;;;;;;17.23;100.00;100952.66;4954564;29;20031;-66
2021/08/28 03:15:26;;;;;;;5.63;2.60;;;;;;;17.22;100.00;100958.50;4969956;28;20162;-66
2021/08/28 03:18:10;;;;;;;4.78;2.25;;;;;;;17.21;100.00;100952.28;4970023;28;20031;-66
2021/08/28 03:20:40;;;;;;;5.63;2.35;;;;;;;17.18;100.00;100955.81;4965905;28;20122;-66
2021/08/28 03:23:12;;;;;;;4.53;2.42;;;;;;;17.19;100.00;100954.63;4968710;28;20023;-66
2021/08/28 03:25:39;;;;;;;3.75;2.03;;;;;;;17.21;100.00;100948.81;4947267;28;20058;-67
2021/08/28 03:28:05;;;;;;;4.57;2.30;;;;;;;17.18;100.00;100953.09;4954437;28;20027;-66
2021/08/28 03:30:31;;;;;;;5.72;2.15;;;;;;;17.16;100.00;100949.97;4968546;28;20031;-66
2021/08/28 03:32:57;;;;;;;3.78;2.35;;;;;;;17.17;100.00;100959.69;4965327;28;20117;-66
2021/08/28 03:35:25;;;;;;;7.60;2.08;;;;;;;17.13;100.00;100964.34;4959330;28;20105;-66
2021/08/28 03:37:52;;;;;;;3.55;2.28;;;;;;;17.13;100.00;100969.78;4955299;28;20386;-66
2021/08/28 03:40:21;;;;;;;5.28;2.30;;;;;;;17.14;100.00;100974.09;4967529;28;20031;-65
2021/08/28 03:42:47;;;;;;;4.75;2.30;;;;;;;17.15;100.00;100981.06;4952187;29;20039;-66
2021/08/28 03:45:15;;;;;;;4.13;2.60;;;;;;;17.13;100.00;100983.41;4969476;28;20051;-66
2021/08/28 03:47:44;;;;;;;3.53;2.05;;;;;;;17.17;100.00;100976.00;4964650;28;20195;-67
2021/08/28 03:50:12;;;;;;;3.10;2.00;;;;;;;17.15;100.00;100968.25;4952721;29;20046;-66
2021/08/28 03:52:39;;;;;;;5.30;2.20;;;;;;;17.13;100.00;100972.50;4949387;28;20495;-66
2021/08/28 03:55:06;;;;;;;3.67;2.00;;;;;;;17.15;100.00;100975.63;4968524;28;20562;-65
2021/08/28 03:57:33;;;;;;;4.07;2.13;;;;;;;17.14;100.00;100979.53;4952542;28;20035;-65
2021/08/28 03:59:58;;;;;;;3.70;2.13;;;;;;;17.11;100.00;100962.03;4968918;28;20031;-66
2021/08/28 04:02:24;;;;;;;3.22;1.92;;;;;;;17.12;100.00;100968.25;4963628;28;20058;-66
2021/08/28 04:04:53;;;;;;;2.95;1.83;;;;;;;17.14;100.00;100976.81;4969253;28;20772;-66
2021/08/28 04:07:18;;;;;;;3.38;1.95;;;;;;;17.12;100.00;100977.19;4952730;28;20039;-66
2021/08/28 04:09:45;;;;;;;3.10;2.10;;;;;;;17.12;100.00;100976.41;4948008;28;20404;-66
2021/08/28 04:12:10;;;;;;;4.50;2.40;;;;;;;17.12;100.00;100984.59;4967431;28;20038;-66
2021/08/28 04:14:46;;;;;;;4.43;2.53;;;;;;;17.13;100.00;100983.41;4944882;28;20031;-66
2021/08/28 04:17:11;;;;;;;4.43;2.28;;;;;;;17.12;100.00;100982.66;4966162;28;20023;-66
2021/08/28 04:19:37;;;;;;;4.28;1.92;;;;;;;17.12;100.00;100982.66;4968781;28;20360;-66
2021/08/28 04:22:10;;;;;;;3.42;1.95;;;;;;;17.12;100.00;100992.75;4967894;28;20046;-66
2021/08/28 04:24:59;;;;;;;3.30;1.80;;;;;;;17.13;100.00;100992.34;4961916;28;20039;-67
2021/08/28 04:27:50;;;;;;;2.60;1.45;;;;;;;17.10;100.00;100986.91;4948154;29;20031;-66
2021/08/28 04:30:24;;;;;;;3.78;1.80;;;;;;;17.11;100.00;100986.53;4950154;28;20028;-66
2021/08/28 04:32:49;;;;;;;3.60;1.90;;;;;;;17.11;100.00;100985.75;4951763;28;20038;-66
2021/08/28 04:35:15;;;;;;;3.10;1.60;;;;;;;17.16;100.00;100996.25;4965328;28;20373;-66
2021/08/28 04:37:44;;;;;;;2.28;1.40;;;;;;;17.14;100.00;100987.69;4955134;28;20403;-66
2021/08/28 04:40:10;;;;;;;3.38;1.80;;;;;;;17.10;100.00;100995.09;4968580;28;20447;-65
2021/08/28 04:42:36;;;;;;;1.77;1.40;;;;;;;17.07;100.00;100985.00;4966464;28;20042;-66
2021/08/28 04:45:04;;;;;;;2.45;1.65;;;;;;;17.07;100.00;100974.84;4950301;28;20074;-66
2021/08/28 04:47:39;;;;;;;1.88;1.48;;;;;;;17.02;100.00;100974.47;4967397;28;20118;-66
2021/08/28 04:50:06;;;;;;;2.08;1.38;;;;;;;17.06;100.00;100976.03;4949367;29;20166;-66
2021/08/28 04:52:37;;;;;;;1.80;1.50;;;;;;;17.08;100.00;100981.88;4950602;28;20065;-66
2021/08/28 04:55:03;;;;;;;2.75;1.50;;;;;;;17.06;100.00;100986.94;4949137;28;20037;-66
2021/08/28 04:57:29;;;;;;;3.35;2.08;;;;;;;16.97;100.00;100988.50;4951449;28;20059;-66
2021/08/28 04:59:55;;;;;;;1.67;1.20;;;;;;;17.03;100.00;100989.66;4967650;28;20440;-66
2021/08/28 05:02:39;;;;;;;1.33;1.05;;;;;;;17.03;100.00;100992.38;4949066;29;20424;-66
2021/08/28 05:05:09;;;;;;;1.73;1.20;;;;;;;17.05;100.00;100981.88;4946604;29;20047;-66
2021/08/28 05:07:35;;;;;;;2.35;1.30;;;;;;;17.06;100.00;100983.41;4966701;28;20487;-66
2021/08/28 05:10:00;;;;;;;1.65;1.17;;;;;;;17.08;100.00;100986.53;4964362;28;20178;-66
2021/08/28 05:12:25;;;;;;;2.08;1.45;;;;;;;17.08;100.00;100983.81;4951053;29;20416;-66
2021/08/28 05:15:07;;;;;;;2.13;1.33;;;;;;;17.05;100.00;100987.31;4957927;28;20400;-66
2021/08/28 05:17:40;;;;;;;1.60;0.90;;;;;;;17.05;100.00;100979.16;4966070;28;20043;-66
2021/08/28 05:20:07;;;;;;;2.45;1.27;;;;;;;17.03;100.00;100989.66;4963756;28;20062;-66
2021/08/28 05:22:40;;;;;;;1.40;1.15;;;;;;;17.01;100.00;100981.84;4942038;28;20407;-66
2021/08/28 05:25:26;;;;;;;2.40;1.55;;;;;;;17.03;100.00;100978.78;4949268;28;20436;-66
2021/08/28 05:27:53;;;;;;;2.00;1.42;;;;;;;17.03;100.00;100987.69;4943728;28;20603;-66
2021/08/28 05:30:19;;;;;;;1.63;1.10;;;;;;;17.04;100.00;100997.44;4947154;28;20073;-66
2021/08/28 05:32:45;;;;;;;1.65;1.25;;;;;;;17.06;100.00;100991.59;4948378;28;20522;-66
2021/08/28 05:35:11;;;;;;;1.92;1.38;;;;;;;17.04;100.00;100999.34;4950871;28;20027;-66
2021/08/28 05:38:06;;;;;;;2.25;1.48;;;;;;;17.05;100.00;100992.75;4948053;28;20040;-66
2021/08/28 05:40:35;;;;;;;2.03;1.13;;;;;;;17.07;100.00;101014.94;4966675;28;20046;-66
2021/08/28 05:43:01;;;;;;;1.70;1.38;;;;;;;17.07;100.00;101009.47;4949443;29;20031;-65
2021/08/28 05:45:32;;;;;;;2.70;1.27;;;;;;;17.11;100.00;101007.53;4947292;28;20271;-66
2021/08/28 05:47:58;;;;;;;3.00;1.70;;;;;;;17.13;100.00;101005.19;4949324;28;20032;-66
2021/08/28 05:50:24;;;;;;;2.00;1.40;;;;;;;17.11;100.00;101007.53;4963693;28;20041;-66
2021/08/28 05:52:49;;;;;;;2.55;1.70;;;;;;;17.11;100.00;101002.09;4948774;28;20039;-66
2021/08/28 05:55:15;;;;;;;2.38;1.65;;;;;;;17.13;100.00;101013.34;4963506;28;20027;-66
2021/08/28 05:57:42;;;;;;;4.50;1.73;;;;;;;17.14;100.00;101012.19;4949518;28;20437;-67
2021/08/28 06:00:09;;;;;;;5.28;1.98;;;;;;;17.15;100.00;101008.28;4967087;28;20522;-66
2021/08/28 06:02:40;;;;;;;3.30;1.85;;;;;;;17.13;100.00;101008.69;4950349;28;21051;-66
2021/08/28 06:05:13;;;;;;;2.75;1.90;;;;;;;17.08;100.00;101003.66;4957071;28;20043;-66
2021/08/28 06:08:09;;;;;;;4.63;2.13;;;;;;;17.12;100.00;101009.88;4963123;28;20047;-66
2021/08/28 06:10:53;;;;;;;3.30;1.98;;;;;;;17.15;100.00;101002.84;4948393;29;20182;-66
2021/08/28 06:13:37;;;;;;;3.80;2.13;;;;;;;17.15;100.00;101005.56;4950531;29;20050;-66
2021/08/28 06:16:13;;;;;;;5.40;2.55;;;;;;;17.21;100.00;101014.13;4948178;28;20031;-66
2021/08/28 06:18:39;;;;;;;4.47;2.40;;;;;;;17.20;100.00;101013.34;4948915;28;20063;-66
2021/08/28 06:21:05;;;;;;;4.63;2.50;;;;;;;17.31;100.00;101007.88;4943873;29;20035;-66
2021/08/28 06:23:30;;;;;;;5.57;2.70;;;;;;;17.32;100.00;101012.97;4963014;28;20070;-67
2021/08/28 06:26:28;;;;;;;5.93;2.90;;;;;;;17.31;100.00;101018.78;4959730;28;20487;-66
2021/08/28 06:28:54;;;;;;;5.60;2.50;;;;;;;17.35;100.00;101005.94;4948097;29;20070;-66
2021/08/28 06:31:20;;;;;;;5.50;3.30;;;;;;;17.33;100.00;101016.44;4949079;28;20035;-66
2021/08/28 06:33:45;;;;;;;4.88;2.75;;;;;;;17.35;100.00;101014.88;4947928;28;20035;-65
2021/08/28 06:36:12;;;;;;;9.05;3.10;;;;;;;17.36;100.00;101010.22;4964392;28;20082;-66
2021/08/28 06:39:16;;;;;;;6.90;3.20;;;;;;;17.40;100.00;101019.94;4950065;29;20035;-66
2021/08/28 06:42:07;;;;;;;;;;;;;;;17.30;100.00;101026.19;4951699;28;20074;-66
2021/08/28 06:44:51;;;;;;;5.93;2.70;;;;;;;17.47;100.00;101022.66;4951930;29;20279;-66
2021/08/28 06:47:35;;;;;;;5.63;2.80;;;;;;;17.56;100.00;101016.81;4962873;28;20050;-66
2021/08/28 06:50:19;;;;;;;6.22;3.40;;;;;;;17.55;100.00;101026.16;4947067;28;20070;-66
2021/08/28 06:53:03;;;;;;;5.75;3.03;;;;;;;17.58;100.00;101017.19;4949054;29;20518;-67
2021/08/28 06:56:04;;;;;;;4.75;2.83;;;;;;;17.67;100.00;101018.34;4943811;28;20046;-66
2021/08/28 06:58:52;;;;;;;6.15;3.22;;;;;;;17.72;100.00;101017.94;4948618;28;20504;-66
2021/08/28 07:01:35;;;;;;;6.30;2.70;;;;;;;17.75;100.00;101025.31;4958204;28;20554;-66
2021/08/28 07:04:19;;;;;;;6.20;3.13;;;;;;;17.77;100.00;101019.47;4944713;28;20058;-66
2021/08/28 07:07:11;;;;;;;6.85;3.00;;;;;;;17.75;100.00;101027.31;4946345;28;20489;-66
2021/08/28 07:09:38;;;;;;;4.35;2.85;;;;;;;17.83;100.00;101026.88;4964235;28;20031;-66
2021/08/28 07:12:05;;;;;;;4.65;2.67;;;;;;;17.91;100.00;101025.69;4948074;28;20042;-66
2021/08/28 07:14:31;;;;;;;5.93;2.70;;;;;;;17.83;100.00;101015.97;4963564;28;20035;-66
2021/08/28 07:16:57;;;;;;;7.28;3.13;;;;;;;17.85;100.00;101021.81;4953056;28;20109;-66
2021/08/28 07:19:23;;;;;;;4.78;2.75;;;;;;;17.85;100.00;101013.63;4952401;28;20114;-66
2021/08/28 07:21:48;;;;;;;4.80;2.70;;;;;;;17.90;100.00;101023.34;4966313;28;20126;-65
2021/08/28 07:24:14;;;;;;;6.22;2.75;;;;;;;17.91;100.00;101017.50;4950141;28;20389;-66
2021/08/28 07:26:44;;;;;;;5.57;2.67;;;;;;;17.89;100.00;101028.00;4968069;28;20035;-66
2021/08/28 07:29:30;;;;;;;4.93;2.38;;;;;;;17.90;100.00;101023.34;4952895;28;20126;-66
2021/08/28 07:31:56;;;;;;;4.85;2.45;;;;;;;17.89;100.00;101027.22;4967784;28;20500;-66
2021/08/28 07:34:21;;;;;;;5.68;2.70;;;;;;;17.82;100.00;101033.50;4968455;28;20031;-66
2021/08/28 07:36:47;;;;;;;4.13;2.40;;;;;;;17.91;100.00;101041.25;4964782;28;20037;-66
2021/08/28 07:39:13;;;;;;;6.43;2.53;;;;;;;17.98;100.00;101041.25;4952747;28;20031;-66
2021/08/28 07:41:38;;;;;;;3.85;2.13;;;;;;;18.00;100.00;101036.91;4951829;28;20376;-66
2021/08/28 07:44:04;;;;;;;5.57;2.40;;;;;;;17.99;100.00;101035.38;4967467;28;20083;-66
2021/08/28 07:46:30;;;;;;;5.47;2.88;;;;;;;17.92;100.00;101035.38;4967916;28;20535;-66
2021/08/28 07:49:12;;;;;;;3.38;2.25;;;;;;;17.92;100.00;101040.84;4964431;28;20067;-69
2021/08/28 07:51:38;;;;;;;4.65;2.40;;;;;;;17.91;100.00;101035.78;4955754;28;20039;-66
2021/08/28 07:54:05;;;;;;;4.50;2.33;;;;;;;17.91;100.00;101028.41;4952234;28;20023;-67
2021/08/28 07:56:31;;;;;;;4.07;2.40;;;;;;;17.98;100.00;101035.78;4950060;28;20097;-66
2021/08/28 07:58:56;;;;;;;3.83;2.08;;;;;;;18.01;100.00;101026.81;4949731;29;21459;-67
2021/08/28 08:01:22;;;;;;;3.88;2.35;;;;;;;18.06;100.00;101028.34;4949000;28;20069;-67
2021/08/28 08:03:48;;;;;;;3.83;2.35;;;;;;;18.11;100.00;101033.38;4940506;28;20515;-66
2021/08/28 08:06:19;;;;;;;3.90;2.15;;;;;;;18.17;100.00;101035.31;4953613;28;20125;-67
2021/08/28 08:09:03;;;;;;;4.25;2.00;;;;;;;18.16;100.00;101032.97;4953091;29;20051;-66
2021/08/28 08:11:47;;;;;;;3.97;2.22;;;;;;;18.26;100.00;101037.59;4949704;29;20063;-66
2021/08/28 08:14:25;;;;;;;3.92;2.08;;;;;;;18.36;100.00;101031.31;4954233;28;20058;-67
2021/08/28 08:17:09;;;;;;;4.47;2.20;;;;;;;18.41;100.00;101041.78;4965935;28;20566;-66
2021/08/28 08:19:54;;;;;;;3.75;2.22;;;;;;;18.44;100.00;101038.31;4950499;28;20051;-66
2021/08/28 08:22:39;;;;;;;3.63;2.20;;;;;;;18.49;100.00;101035.16;4959818;28;20063;-66
2021/08/28 08:25:31;;;;;;;2.58;1.95;;;;;;;18.55;100.00;101041.75;4957742;28;20039;-66
2021/08/28 08:28:25;;;;;;;4.65;1.85;;;;;;;18.52;100.00;101034.38;4994875;22;20059;-69
2021/08/28 08:31:10;;;;;;;3.72;2.10;;;;;;;18.54;100.00;101040.97;4972407;28;20598;-69
2021/08/28 08:33:38;;;;;;;3.28;2.03;;;;;;;18.54;100.00;101034.75;4958682;28;20050;-70
2021/08/28 08:36:06;;;;;;;4.25;2.00;;;;;;;18.58;100.00;101044.44;4965309;28;20506;-69
2021/08/28 08:38:31;;;;;;;2.70;1.60;;;;;;;18.47;100.00;101041.03;4967609;28;20037;-69
2021/08/28 08:40:58;;;;;;;2.67;1.80;;;;;;;18.52;100.00;101048.00;4953826;28;20030;-69
2021/08/28 08:43:25;;;;;;;3.10;1.73;;;;;;;18.51;100.00;101039.06;4949871;28;20062;-69
2021/08/28 08:45:51;;;;;;;3.47;1.80;;;;;;;18.50;100.00;101042.97;4967471;28;20451;-72
2021/08/28 08:48:17;;;;;;;3.20;1.75;;;;;;;18.49;100.00;101043.34;4969470;28;20038;-69
2021/08/28 08:50:45;;;;;;;2.15;1.60;;;;;;;18.55;100.00;101047.22;4948998;28;20039;-70
2021/08/28 08:53:17;;;;;;;2.88;1.52;;;;;;;18.65;100.00;101047.16;4964987;28;20082;-69
2021/08/28 08:55:47;;;;;;;2.67;1.65;;;;;;;18.77;100.00;101048.63;4947808;28;20154;-69
2021/08/28 08:58:15;;;;;;;2.88;1.83;;;;;;;18.85;100.00;101052.88;4955459;28;20110;-69
2021/08/28 09:00:40;;;;;;;2.35;1.63;;;;;;;18.89;100.00;101054.38;4951251;28;20238;-69
2021/08/28 09:03:24;;;;;;;1.75;1.33;;;;;;;18.95;100.00;101051.25;4956651;28;20483;-69
2021/08/28 09:05:56;;;;;;;2.05;1.30;;;;;;;19.08;100.00;101055.81;4948364;28;20042;-69
2021/08/28 09:08:24;;;;;;;1.40;1.17;;;;;;;19.28;100.00;101053.31;4959677;28;20030;-69
2021/08/28 09:10:49;;;;;;;1.52;1.15;;;;;;;19.37;100.00;101053.66;4955418;28;20076;-69
2021/08/28 09:13:17;;;;;;;1.67;1.33;;;;;;;19.49;100.00;101040.25;4957436;28;20128;-69
2021/08/28 09:15:48;;;;;;;2.08;1.50;;;;;;;19.51;100.00;101048.06;4964815;28;21978;-69
2021/08/28 09:18:14;;;;;;;4.85;1.33;;;;;;;19.51;100.00;101051.53;4962945;28;20042;-69
2021/08/28 09:20:40;;;;;;;1.58;1.15;;;;;;;19.58;100.00;101053.44;4956497;28;20050;-69
2021/08/28 09:23:08;;;;;;;2.05;1.30;;;;;;;19.69;100.00;101052.16;4957721;28;20031;-69
2021/08/28 09:25:37;;;;;;;4.78;1.30;;;;;;;19.72;100.00;101053.31;4960888;28;20396;-69
2021/08/28 09:28:02;;;;;;;1.40;0.98;;;;;;;19.72;100.00;101047.84;4953602;28;20031;-69
2021/08/28 09:30:31;;;;;;;1.75;1.02;;;;;;;19.73;100.00;101049.38;4968991;28;20035;-69
2021/08/28 09:32:56;;;;;;;2.08;1.10;;;;;;;19.88;100.00;101048.03;4967605;28;20038;-69
2021/08/28 09:35:33;;;;;;;1.15;0.88;;;;;;;19.81;100.00;101050.84;4961607;28;20399;-69
2021/08/28 09:38:04;;;;;;;1.75;0.88;;;;;;;19.88;100.00;101055.47;4949928;28;20057;-69
2021/08/28 09:40:33;;;;;;;2.05;0.80;;;;;;;19.70;100.00;101048.22;4963680;28;20045;-69
2021/08/28 09:43:12;;;;;;;1.42;1.00;;;;;;;19.68;100.00;101053.34;4952767;28;20037;-69
2021/08/28 09:45:38;;;;;;;2.42;1.27;;;;;;;19.71;100.00;101049.00;4963686;28;20035;-69
2021/08/28 09:48:10;;;;;;;0.90;0.80;;;;;;;19.73;100.00;101055.63;4968165;28;20038;-69
2021/08/28 09:50:38;;;;;;;1.65;0.88;;;;;;;19.71;100.00;101059.94;4950923;28;20047;-69
2021/08/28 09:53:07;;;;;;;1.00;0.90;;;;;;;19.73;100.00;101049.38;4955802;28;20038;-69
2021/08/28 09:55:35;;;;;;;0.88;0.80;;;;;;;19.80;100.00;101057.53;4959026;28;20030;-69
2021/08/28 09:58:01;;;;;;;1.05;0.70;;;;;;;19.87;100.00;101062.91;4959227;28;20039;-69
2021/08/28 10:00:30;;;;;;;0.85;0.80;;;;;;;19.98;100.00;101062.75;4952362;28;20403;-69
2021/08/28 10:02:56;;;;;;;1.00;0.70;;;;;;;19.92;100.00;101058.94;4964999;28;20051;-69
2021/08/28 10:05:24;;;;;;;0.95;0.77;;;;;;;19.86;100.00;101064.06;4966649;28;20078;-68
2021/08/28 10:07:51;;;;;;;0.90;0.57;;;;;;;19.88;100.00;101058.22;4957479;28;20045;-69
2021/08/28 10:10:18;;;;;;;0.55;0.52;;;;;;;19.82;100.00;101066.09;4960978;28;20039;-69
2021/08/28 10:12:45;;;;;;;0.90;0.88;;;;;;;19.80;100.00;101071.94;4965781;28;20038;-69
2021/08/28 10:15:12;;;;;;;0.80;0.73;;;;;;;19.79;100.00;101072.34;4969026;28;20034;-69
2021/08/28 10:17:41;;;;;;;0.45;0.45;;;;;;;19.77;100.00;101064.56;4955378;28;20167;-69
2021/08/28 10:20:07;;;;;;;0.70;0.60;;;;;;;19.71;100.00;101058.00;4966810;28;20426;-69
2021/08/28 10:22:35;;;;;;;0.90;0.80;;;;;;;19.67;100.00;101068.19;4969111;28;20496;-69
2021/08/28 10:25:05;;;;;;;0.50;0.50;;;;;;;19.61;100.00;101069.03;4957433;28;20122;-69
2021/08/28 10:27:31;;;;;;;0.80;0.70;;;;;;;19.56;100.00;101066.72;4964324;28;20408;-69
2021/08/28 10:29:57;;;;;;;1.00;0.50;;;;;;;19.54;100.00;101064.41;4963248;28;20038;-69
2021/08/28 10:32:23;;;;;;;0.60;0.60;;;;;;;19.49;100.00;101072.28;4961806;28;20435;-69
2021/08/28 10:34:49;;;;;;;0.63;0.60;;;;;;;19.53;100.00;101065.56;4966033;28;20043;-69
2021/08/28 10:37:15;;;;;;;1.17;0.80;;;;;;;19.54;100.00;101071.81;4961782;28;20027;-69
2021/08/28 10:39:42;;;;;;;0.70;0.70;;;;;;;19.61;100.00;101074.47;4952944;28;20050;-69
2021/08/28 10:42:10;;;;;;;0.85;0.52;;;;;;;19.65;100.00;101070.53;4940897;28;20384;-68
2021/08/28 10:44:35;;;;;;;0.30;0.30;;;;;;;19.69;100.00;101065.03;4964073;28;20093;-69
2021/08/28 10:47:15;;;;;;;0.65;0.55;;;;;;;19.68;100.00;101077.16;4931745;28;20027;-69
2021/08/28 10:49:48;;;;;;;0.57;0.50;;;;;;;19.75;100.00;101066.16;4967721;28;20150;-69
2021/08/28 10:52:24;;;;;;;0.80;0.52;;;;;;;19.83;100.00;101081.28;4962321;28;20049;-69
2021/08/28 10:54:58;;;;;;;0.45;0.45;;;;;;;19.89;100.00;101071.47;4954775;28;20380;-68
2021/08/28 10:57:28;;;;;;;0.45;0.45;;;;;;;19.90;100.00;101073.00;4971741;28;20038;-69
2021/08/28 11:00:02;;;;;;;0.93;0.70;;;;;;;19.91;100.00;101065.59;4974759;28;20419;-69
2021/08/28 11:02:57;;;;;;;0.65;0.47;;;;;;;19.93;100.00;101071.44;4960066;28;20046;-69
2021/08/28 11:05:31;;;;;;;0.68;0.60;;;;;;;19.95;100.00;101080.00;4962283;28;20659;-69
2021/08/28 11:08:24;;;;;;;1.10;0.80;;;;;;;19.94;100.00;101068.28;4936179;28;20069;-69
2021/08/28 11:11:19;;;;;;;0.80;0.80;;;;;;;19.79;100.00;101073.13;4959134;28;20149;-69
2021/08/28 11:14:21;;;;;;;1.10;0.80;;;;;;;19.83;100.00;101078.56;4958961;28;20035;-69
2021/08/28 11:16:50;;;;;;;1.65;0.90;;;;;;;19.79;100.00;101069.63;4963541;28;20038;-69
2021/08/28 11:19:25;;;;;;;1.30;0.95;;;;;;;19.73;100.00;101080.22;4965669;28;20046;-69
2021/08/28 11:21:52;;;;;;;2.17;0.98;;;;;;;19.67;100.00;101076.38;4968210;28;20244;-69
2021/08/28 11:24:20;;;;;;;2.25;1.08;;;;;;;19.71;100.00;101077.13;4967291;28;20050;-69
2021/08/28 11:26:50;;;;;;;1.17;0.77;;;;;;;19.78;100.00;101077.03;4966096;28;20153;-69
2021/08/28 11:29:24;;;;;;;4.10;1.05;;;;;;;19.80;100.00;101071.94;4968049;28;20122;-69
2021/08/28 11:32:12;;;;;;;1.70;0.82;;;;;;;19.85;100.00;101078.16;4962471;28;20051;-69
2021/08/28 11:34:41;;;;;;;1.02;0.80;;;;;;;19.96;100.00;101079.59;4960629;28;20031;-69
2021/08/28 11:37:28;;;;;;;0.82;0.60;;;;;;;20.00;100.00;101082.28;4960929;28;20058;-69
2021/08/28 11:40:05;;;;;;;1.30;0.95;;;;;;;20.01;100.00;101081.09;4959281;28;20041;-70